createdAt,value
2022-11-10T00:04:58.682Z,99468.55
2022-11-10T00:15:22.573Z,99473.94
2022-11-10T00:25:29.309Z,99478.33
2022-11-10T00:35:34.919Z,99472.05
2022-11-10T00:45:45.019Z,99474.38
2022-11-10T00:55:50.936Z,99469.91
2022-11-10T01:05:56.548Z,99478.20
2022-11-10T01:16:06.642Z,99471.80
2022-11-10T01:26:12.866Z,99469.42
2022-11-10T01:36:18.595Z,99483.81
2022-11-10T01:46:24.233Z,99481.01
2022-11-10T01:56:33.661Z,99485.67
2022-11-10T02:06:42.940Z,99487.38
2022-11-10T02:16:48.648Z,99495.73
2022-11-10T02:26:57.000Z,99523.29
2022-11-10T02:37:02.526Z,99528.55
2022-11-10T02:47:09.077Z,99536.05
2022-11-10T02:57:14.607Z,99538.77
2022-11-10T03:07:20.259Z,99541.64
2022-11-10T03:17:26.047Z,99545.16
2022-11-10T03:27:32.051Z,99556.23
2022-11-10T03:37:37.677Z,99564.82
2022-11-10T03:47:45.506Z,99564.77
2022-11-10T03:57:51.094Z,99576.16
2022-11-10T04:08:20.570Z,99583.35
2022-11-10T04:18:26.438Z,99586.44
2022-11-10T04:28:32.054Z,99593.77
2022-11-10T04:38:38.089Z,99603.60
2022-11-10T04:48:43.649Z,99612.30
2022-11-10T04:58:49.514Z,99615.11
2022-11-10T05:08:55.374Z,99618.27
2022-11-10T05:19:00.913Z,99626.96
2022-11-10T05:29:06.529Z,99638.77
2022-11-10T05:39:12.353Z,99650.70
2022-11-10T05:49:18.143Z,99658.20
2022-11-10T05:59:23.762Z,99676.55
2022-11-10T06:09:29.384Z,99699.91
2022-11-10T06:19:35.074Z,99713.19
2022-11-10T06:29:40.765Z,99722.91
2022-11-10T06:39:46.571Z,99730.23
2022-11-10T06:49:52.270Z,99746.50
2022-11-10T06:59:57.965Z,99766.44
2022-11-10T07:10:06.993Z,99777.50
2022-11-10T07:20:14.078Z,99798.36
2022-11-10T07:30:20.137Z,99812.31
2022-11-10T07:40:26.044Z,99824.21
2022-11-10T07:50:32.381Z,99832.30
2022-11-10T08:00:39.306Z,99840.79
2022-11-10T08:10:45.090Z,99857.02
2022-11-10T08:20:50.905Z,99866.27
2022-11-10T08:30:59.316Z,99885.33
2022-11-10T08:41:07.481Z,99901.67
2022-11-10T08:51:13.205Z,99924.94
2022-11-10T09:01:18.917Z,99934.63
2022-11-10T09:11:24.542Z,99946.55
2022-11-10T09:21:30.181Z,99959.48
2022-11-10T09:31:35.865Z,99974.53
2022-11-10T09:41:45.959Z,99986.73
2022-11-10T09:51:53.642Z,99992.44
2022-11-10T10:02:04.101Z,99996.04
2022-11-10T10:12:24.701Z,100010.73
2022-11-10T10:22:47.089Z,100021.23
2022-11-10T10:32:58.075Z,100029.86
2022-11-10T10:43:04.581Z,100035.09
2022-11-10T10:53:16.271Z,100042.33
2022-11-10T11:03:29.944Z,100035.80
2022-11-10T11:13:35.947Z,100037.82
2022-11-10T11:23:54.656Z,100050.07
2022-11-10T11:34:07.483Z,100059.41
2022-11-10T11:44:25.544Z,100054.42
2022-11-10T11:54:33.317Z,100058.67
2022-11-10T12:04:46.453Z,100070.63
2022-11-10T12:15:00.278Z,100074.65
2022-11-10T12:25:14.443Z,100092.48
2022-11-10T12:35:24.355Z,100094.34
2022-11-10T12:45:33.819Z,100106.05
2022-11-10T12:55:43.890Z,100125.69
2022-11-10T13:05:58.336Z,100133.95
2022-11-10T13:16:04.026Z,100134.36
2022-11-10T13:26:12.894Z,100143.88
2022-11-10T13:36:39.520Z,100151.95
2022-11-10T13:47:14.131Z,100175.15
2022-11-10T13:57:32.743Z,100176.20
2022-11-10T14:07:42.510Z,100191.27
2022-11-10T14:17:51.662Z,100205.91
2022-11-10T14:27:58.623Z,100224.31
2022-11-10T14:38:07.672Z,100236.05
2022-11-10T14:48:21.773Z,100248.20
2022-11-10T14:58:33.135Z,100263.30
2022-11-10T15:08:39.257Z,100283.27
2022-11-10T15:18:45.658Z,100305.83
2022-11-10T15:28:52.023Z,100321.26
2022-11-10T15:39:16.869Z,100329.45
2022-11-10T15:49:26.369Z,100344.48
2022-11-10T15:59:32.584Z,100354.20
2022-11-10T16:09:38.306Z,100368.47
2022-11-10T16:19:44.059Z,100393.80
2022-11-10T16:29:49.672Z,100423.87
2022-11-10T16:39:55.601Z,100447.60
2022-11-10T16:50:01.397Z,100464.74
2022-11-10T17:00:08.806Z,100479.23
2022-11-10T17:10:19.785Z,100486.18
2022-11-10T17:20:29.923Z,100494.59
2022-11-10T17:30:36.470Z,100493.47
2022-11-10T17:40:43.817Z,100502.01
2022-11-10T17:50:49.490Z,100506.08
2022-11-10T18:00:55.160Z,100512.21
2022-11-10T18:11:02.937Z,100514.36
2022-11-10T18:21:09.671Z,100521.67
2022-11-10T18:31:15.468Z,100522.88
2022-11-10T18:41:39.152Z,100524.89
2022-11-10T18:51:45.076Z,100526.48
2022-11-10T19:01:51.317Z,100540.27
2022-11-10T19:11:57.539Z,100550.13
2022-11-10T19:22:03.114Z,100566.10
2022-11-10T19:32:08.851Z,100581.27
2022-11-10T19:42:14.936Z,100610.89
2022-11-10T19:52:20.645Z,100613.06
2022-11-10T20:02:26.326Z,100616.13
2022-11-10T20:12:32.209Z,100622.54
2022-11-10T20:22:37.935Z,100629.83
2022-11-10T20:32:43.666Z,100622.19
2022-11-10T20:42:49.817Z,100625.59
2022-11-10T20:52:55.856Z,100639.73
2022-11-10T21:03:01.444Z,100648.02
2022-11-10T21:13:07.084Z,100643.77
2022-11-10T21:23:13.054Z,100642.60
2022-11-10T21:33:19.165Z,100641.34
2022-11-10T21:43:25.082Z,100644.58
2022-11-10T21:53:31.549Z,100649.88
2022-11-10T22:03:39.082Z,100657.96
2022-11-10T22:14:02.764Z,100653.73
2022-11-10T22:24:24.214Z,100657.27
2022-11-10T22:34:30.301Z,100672.55
2022-11-10T22:44:37.244Z,100675.50
2022-11-10T22:54:43.293Z,100688.58
2022-11-10T23:04:49.277Z,100697.99
2022-11-10T23:14:55.046Z,100714.70
2022-11-10T23:25:00.782Z,100726.63
2022-11-10T23:35:07.072Z,100729.40
2022-11-10T23:45:13.349Z,100732.69
2022-11-10T23:55:19.211Z,100741.98
